Skip Navigation Links
NOAA logo - Click to go to the NOAA homepage
NOAA's National Weather Service
Alaska Aviation Weather Unit
  NWS logo - Click to go to the NWS homepage
Left Navbar Graphic     09 AKDT = 17 GMT

   
NOAA is celebrating 200 years of science, service, and stewardship. Visit the NOAA 200th celebration Web site to learn more.
USA.gov is the U.S. Government's official Web portal to all Federal, state and local government Web resources and services.
Facebook
NWS on Facebook

Important Change Regarding the AAWU Web Presence

 

Over the last several months, the AAWU has been working to navigate its webpages to a nationally supported server. Security, as well as other needs, have necessitated the change.  In the process, we have made an effort to enhance the functionality of our website, as well as some of our products. As of June 20, 2017, aawu.arh.noaa.gov will be discontinued. The new AAWU web address is weather.gov/aawu. It is now live and will run in-parallel with the old site until it is discontinued. Please send any feedback or questions regarding the new webpages to nws.ar.aawu.webauthors@noaa.gov.  Thank you for your patience during this time of transition.
AAWU Home :: Display TAF Add Bookmark
TAF PAQT 271124Z 2712/2812 VRB06KT P6SM SCT050 BKN100 BKN200=
METAR PAQT 271153Z AUTO 27004KT 10SM FEW070 OVC100 00/M01 A3004 RMK AO2
     UPB22E35 SLP173 P0000 60000 T00001011 10033 21011 50003
     TSNO=

METAR PAQT 271253Z AUTO 26005KT 10SM FEW100 00/M01 A3005 RMK AO2
 SLP178 T00001011 TSNO=

METAR PAQT 271353Z AUTO 20003KT 10SM CLR 01/M01 A3007 RMK AO2 SLP184
     T00061006 TSNO=

METAR PAQT 271453Z AUTO 24005KT 10SM CLR 01/M01 A3008 RMK AO2 SLP187
     T00061006 51014 TSNO=

METAR PAQT 271553Z AUTO 24006KT 10SM CLR 02/00 A3009 RMK AO2 SLP190
 T00170000 TSNO=

METAR PAQT 271653Z AUTO 28006KT 10SM CLR 04/00 A3010 RMK AO2 SLP192
     T00390000 TSNO=


NOAA's National Weather Service
Alaska Aviation Weather Unit
6930 Sand Lake Road
Anchorage, AK 99502-1845
Disclaimer
Credits
Glossary
Privacy Policy
About Us
Career Opportunities
Contact AAWU Internet Services Site last modified: April, 17th 2012